sensor_id;sensor_type;location;lat;lon;timestamp;P1;durP1;ratioP1;P2;durP2;ratioP2
73474;SDS011;61711;52.266;10.542;2023-02-28T00:00:32;14.55;;;7.85;;
73474;SDS011;61711;52.266;10.542;2023-02-28T00:02:58;12.68;;;7.18;;
73474;SDS011;61711;52.266;10.542;2023-02-28T00:05:24;13.80;;;7.28;;
73474;SDS011;61711;52.266;10.542;2023-02-28T00:07:51;11.70;;;6.60;;
73474;SDS011;61711;52.266;10.542;2023-02-28T00:10:22;14.23;;;7.25;;
73474;SDS011;61711;52.266;10.542;2023-02-28T00:12:51;16.67;;;7.53;;
73474;SDS011;61711;52.266;10.542;2023-02-28T00:15:18;11.80;;;7.13;;
73474;SDS011;61711;52.266;10.542;2023-02-28T00:17:44;14.48;;;6.68;;
73474;SDS011;61711;52.266;10.542;2023-02-28T00:20:10;12.40;;;6.60;;
73474;SDS011;61711;52.266;10.542;2023-02-28T00:22:37;11.40;;;6.60;;
73474;SDS011;61711;52.266;10.542;2023-02-28T00:25:04;13.32;;;7.20;;
73474;SDS011;61711;52.266;10.542;2023-02-28T00:27:34;11.68;;;6.85;;
73474;SDS011;61711;52.266;10.542;2023-02-28T00:30:00;10.98;;;6.35;;
73474;SDS011;61711;52.266;10.542;2023-02-28T00:32:26;12.60;;;7.15;;
73474;SDS011;61711;52.266;10.542;2023-02-28T00:34:52;13.70;;;7.65;;
73474;SDS011;61711;52.266;10.542;2023-02-28T00:37:18;14.10;;;6.85;;
73474;SDS011;61711;52.266;10.542;2023-02-28T00:39:44;12.77;;;6.47;;
73474;SDS011;61711;52.266;10.542;2023-02-28T00:42:10;11.65;;;6.93;;
73474;SDS011;61711;52.266;10.542;2023-02-28T00:44:36;12.70;;;6.47;;
73474;SDS011;61711;52.266;10.542;2023-02-28T00:47:02;13.27;;;6.90;;
73474;SDS011;61711;52.266;10.542;2023-02-28T00:49:28;12.32;;;6.57;;
73474;SDS011;61711;52.266;10.542;2023-02-28T00:51:55;12.57;;;6.95;;
73474;SDS011;61711;52.266;10.542;2023-02-28T00:54:22;12.95;;;6.40;;
73474;SDS011;61711;52.266;10.542;2023-02-28T00:56:48;10.52;;;6.32;;
73474;SDS011;61711;52.266;10.542;2023-02-28T00:59:15;13.15;;;6.40;;
73474;SDS011;61711;52.266;10.542;2023-02-28T01:01:42;14.23;;;6.38;;
73474;SDS011;61711;52.266;10.542;2023-02-28T01:04:08;12.88;;;6.85;;
73474;SDS011;61711;52.266;10.542;2023-02-28T01:06:34;10.30;;;6.50;;
73474;SDS011;61711;52.266;10.542;2023-02-28T01:09:01;12.10;;;7.05;;
73474;SDS011;61711;52.266;10.542;2023-02-28T01:11:27;12.90;;;7.18;;
73474;SDS011;61711;52.266;10.542;2023-02-28T01:13:53;11.60;;;6.70;;
73474;SDS011;61711;52.266;10.542;2023-02-28T01:16:19;8.98;;;6.03;;
73474;SDS011;61711;52.266;10.542;2023-02-28T01:18:45;13.68;;;6.75;;
73474;SDS011;61711;52.266;10.542;2023-02-28T01:21:13;12.70;;;6.75;;
73474;SDS011;61711;52.266;10.542;2023-02-28T01:23:39;13.00;;;6.70;;
73474;SDS011;61711;52.266;10.542;2023-02-28T01:28:31;12.38;;;6.70;;
73474;SDS011;61711;52.266;10.542;2023-02-28T01:30:57;12.85;;;6.80;;
73474;SDS011;61711;52.266;10.542;2023-02-28T01:33:23;13.05;;;7.22;;
73474;SDS011;61711;52.266;10.542;2023-02-28T01:35:56;12.50;;;6.80;;
73474;SDS011;61711;52.266;10.542;2023-02-28T01:38:22;14.77;;;7.30;;
73474;SDS011;61711;52.266;10.542;2023-02-28T01:40:49;12.90;;;6.70;;
73474;SDS011;61711;52.266;10.542;2023-02-28T01:43:19;12.38;;;6.63;;
73474;SDS011;61711;52.266;10.542;2023-02-28T01:45:45;12.48;;;6.57;;
73474;SDS011;61711;52.266;10.542;2023-02-28T01:48:11;12.27;;;7.25;;
73474;SDS011;61711;52.266;10.542;2023-02-28T01:50:39;16.38;;;6.93;;
73474;SDS011;61711;52.266;10.542;2023-02-28T01:53:07;13.02;;;7.38;;
73474;SDS011;61711;52.266;10.542;2023-02-28T01:55:35;12.90;;;6.82;;
73474;SDS011;61711;52.266;10.542;2023-02-28T01:58:02;14.05;;;7.45;;
73474;SDS011;61711;52.266;10.542;2023-02-28T02:00:28;13.30;;;7.38;;
73474;SDS011;61711;52.266;10.542;2023-02-28T02:02:56;12.18;;;7.38;;
73474;SDS011;61711;52.266;10.542;2023-02-28T02:05:24;11.60;;;6.70;;
73474;SDS011;61711;52.266;10.542;2023-02-28T02:10:31;11.90;;;6.43;;
73474;SDS011;61711;52.266;10.542;2023-02-28T02:16:08;12.18;;;6.30;;
73474;SDS011;61711;52.266;10.542;2023-02-28T02:18:16;12.75;;;7.18;;
73474;SDS011;61711;52.266;10.542;2023-02-28T02:20:46;12.20;;;6.10;;
73474;SDS011;61711;52.266;10.542;2023-02-28T02:36:35;10.73;;;6.35;;
73474;SDS011;61711;52.266;10.542;2023-02-28T02:41:36;11.57;;;6.13;;
73474;SDS011;61711;52.266;10.542;2023-02-28T02:44:09;12.82;;;5.88;;
73474;SDS011;61711;52.266;10.542;2023-02-28T02:46:40;10.15;;;5.65;;
73474;SDS011;61711;52.266;10.542;2023-02-28T02:49:08;11.18;;;6.50;;
73474;SDS011;61711;52.266;10.542;2023-02-28T02:51:35;11.88;;;6.22;;
73474;SDS011;61711;52.266;10.542;2023-02-28T02:54:06;13.00;;;6.68;;
73474;SDS011;61711;52.266;10.542;2023-02-28T02:56:33;12.50;;;7.07;;
73474;SDS011;61711;52.266;10.542;2023-02-28T02:59:05;13.63;;;6.90;;
73474;SDS011;61711;52.266;10.542;2023-02-28T03:01:32;12.07;;;6.22;;
73474;SDS011;61711;52.266;10.542;2023-02-28T03:04:04;10.23;;;6.15;;
73474;SDS011;61711;52.266;10.542;2023-02-28T03:06:31;10.85;;;6.07;;
73474;SDS011;61711;52.266;10.542;2023-02-28T03:08:57;12.48;;;6.00;;
73474;SDS011;61711;52.266;10.542;2023-02-28T03:11:23;10.35;;;5.82;;
73474;SDS011;61711;52.266;10.542;2023-02-28T03:24:16;10.63;;;5.60;;
73474;SDS011;61711;52.266;10.542;2023-02-28T03:26:43;9.05;;;4.80;;
73474;SDS011;61711;52.266;10.542;2023-02-28T03:32:23;9.25;;;5.18;;
73474;SDS011;61711;52.266;10.542;2023-02-28T03:34:53;8.35;;;4.82;;
73474;SDS011;61711;52.266;10.542;2023-02-28T03:37:22;7.35;;;4.57;;
73474;SDS011;61711;52.266;10.542;2023-02-28T03:39:50;9.57;;;5.43;;
73474;SDS011;61711;52.266;10.542;2023-02-28T03:42:19;8.75;;;5.18;;
73474;SDS011;61711;52.266;10.542;2023-02-28T03:44:48;10.85;;;4.78;;
73474;SDS011;61711;52.266;10.542;2023-02-28T03:47:16;12.60;;;4.57;;
73474;SDS011;61711;52.266;10.542;2023-02-28T03:49:45;8.48;;;4.30;;
73474;SDS011;61711;52.266;10.542;2023-02-28T03:52:12;8.70;;;4.22;;
73474;SDS011;61711;52.266;10.542;2023-02-28T03:54:43;6.05;;;4.03;;
73474;SDS011;61711;52.266;10.542;2023-02-28T03:59:59;8.15;;;4.00;;
73474;SDS011;61711;52.266;10.542;2023-02-28T04:02:26;8.90;;;3.80;;
73474;SDS011;61711;52.266;10.542;2023-02-28T04:04:53;7.47;;;4.18;;
73474;SDS011;61711;52.266;10.542;2023-02-28T04:07:19;7.93;;;4.00;;
73474;SDS011;61711;52.266;10.542;2023-02-28T04:09:45;7.35;;;4.13;;
73474;SDS011;61711;52.266;10.542;2023-02-28T04:12:11;7.63;;;4.10;;
73474;SDS011;61711;52.266;10.542;2023-02-28T04:14:37;6.13;;;3.90;;
73474;SDS011;61711;52.266;10.542;2023-02-28T04:17:03;7.43;;;4.10;;
73474;SDS011;61711;52.266;10.542;2023-02-28T04:19:29;11.23;;;4.80;;
73474;SDS011;61711;52.266;10.542;2023-02-28T04:21:55;9.80;;;3.92;;
73474;SDS011;61711;52.266;10.542;2023-02-28T04:24:25;7.10;;;4.05;;
73474;SDS011;61711;52.266;10.542;2023-02-28T04:26:52;6.70;;;3.75;;
73474;SDS011;61711;52.266;10.542;2023-02-28T04:29:22;7.05;;;3.92;;
73474;SDS011;61711;52.266;10.542;2023-02-28T04:31:48;6.80;;;4.10;;
73474;SDS011;61711;52.266;10.542;2023-02-28T04:34:14;6.78;;;3.97;;
73474;SDS011;61711;52.266;10.542;2023-02-28T04:36:40;9.20;;;4.45;;
73474;SDS011;61711;52.266;10.542;2023-02-28T04:39:07;7.22;;;4.72;;
73474;SDS011;61711;52.266;10.542;2023-02-28T04:41:34;10.95;;;5.13;;
73474;SDS011;61711;52.266;10.542;2023-02-28T04:44:00;10.48;;;4.30;;
73474;SDS011;61711;52.266;10.542;2023-02-28T04:46:26;8.98;;;4.50;;
73474;SDS011;61711;52.266;10.542;2023-02-28T04:48:52;9.55;;;4.65;;
73474;SDS011;61711;52.266;10.542;2023-02-28T04:51:19;9.77;;;4.93;;
73474;SDS011;61711;52.266;10.542;2023-02-28T04:53:46;10.60;;;5.38;;
73474;SDS011;61711;52.266;10.542;2023-02-28T04:56:12;10.13;;;5.00;;
73474;SDS011;61711;52.266;10.542;2023-02-28T04:58:39;7.53;;;4.68;;
73474;SDS011;61711;52.266;10.542;2023-02-28T05:01:06;10.68;;;4.80;;
73474;SDS011;61711;52.266;10.542;2023-02-28T05:03:37;7.28;;;4.85;;
73474;SDS011;61711;52.266;10.542;2023-02-28T05:06:05;8.45;;;5.22;;
73474;SDS011;61711;52.266;10.542;2023-02-28T05:08:31;8.35;;;4.90;;
73474;SDS011;61711;52.266;10.542;2023-02-28T05:10:57;10.55;;;4.93;;
73474;SDS011;61711;52.266;10.542;2023-02-28T05:13:25;10.45;;;5.50;;
73474;SDS011;61711;52.266;10.542;2023-02-28T05:15:51;9.80;;;5.45;;
73474;SDS011;61711;52.266;10.542;2023-02-28T05:18:17;9.02;;;5.38;;
73474;SDS011;61711;52.266;10.542;2023-02-28T05:20:43;11.07;;;5.00;;
73474;SDS011;61711;52.266;10.542;2023-02-28T05:23:12;9.27;;;5.25;;
73474;SDS011;61711;52.266;10.542;2023-02-28T05:25:39;12.82;;;5.47;;
73474;SDS011;61711;52.266;10.542;2023-02-28T05:28:05;9.07;;;5.50;;
73474;SDS011;61711;52.266;10.542;2023-02-28T05:30:31;10.75;;;5.10;;
73474;SDS011;61711;52.266;10.542;2023-02-28T05:32:57;10.63;;;5.25;;
73474;SDS011;61711;52.266;10.542;2023-02-28T05:35:23;11.68;;;5.30;;
73474;SDS011;61711;52.266;10.542;2023-02-28T05:37:49;10.80;;;5.40;;
73474;SDS011;61711;52.266;10.542;2023-02-28T05:40:16;9.27;;;5.22;;
73474;SDS011;61711;52.266;10.542;2023-02-28T05:42:42;9.20;;;5.28;;
73474;SDS011;61711;52.266;10.542;2023-02-28T05:45:08;9.85;;;5.18;;
73474;SDS011;61711;52.266;10.542;2023-02-28T05:47:34;9.50;;;5.72;;
73474;SDS011;61711;52.266;10.542;2023-02-28T05:50:01;13.70;;;5.75;;
73474;SDS011;61711;52.266;10.542;2023-02-28T05:52:27;9.55;;;5.78;;
73474;SDS011;61711;52.266;10.542;2023-02-28T05:54:55;8.55;;;5.80;;
73474;SDS011;61711;52.266;10.542;2023-02-28T05:57:21;11.13;;;5.47;;
73474;SDS011;61711;52.266;10.542;2023-02-28T05:59:47;14.30;;;6.22;;
73474;SDS011;61711;52.266;10.542;2023-02-28T06:02:14;11.80;;;5.90;;
73474;SDS011;61711;52.266;10.542;2023-02-28T06:04:40;12.65;;;6.97;;
73474;SDS011;61711;52.266;10.542;2023-02-28T06:07:06;12.48;;;6.57;;
73474;SDS011;61711;52.266;10.542;2023-02-28T06:09:33;12.73;;;7.28;;
73474;SDS011;61711;52.266;10.542;2023-02-28T06:11:59;10.45;;;6.55;;
73474;SDS011;61711;52.266;10.542;2023-02-28T06:14:25;10.20;;;5.70;;
73474;SDS011;61711;52.266;10.542;2023-02-28T06:16:51;14.05;;;6.40;;
73474;SDS011;61711;52.266;10.542;2023-02-28T06:19:17;11.15;;;6.60;;
73474;SDS011;61711;52.266;10.542;2023-02-28T06:21:43;15.38;;;6.00;;
73474;SDS011;61711;52.266;10.542;2023-02-28T06:24:10;13.55;;;5.90;;
73474;SDS011;61711;52.266;10.542;2023-02-28T06:26:36;11.57;;;5.65;;
73474;SDS011;61711;52.266;10.542;2023-02-28T06:29:02;14.35;;;5.93;;
73474;SDS011;61711;52.266;10.542;2023-02-28T06:31:28;14.18;;;6.50;;
73474;SDS011;61711;52.266;10.542;2023-02-28T06:33:54;10.25;;;5.68;;
73474;SDS011;61711;52.266;10.542;2023-02-28T06:36:21;10.23;;;5.65;;
73474;SDS011;61711;52.266;10.542;2023-02-28T06:38:47;9.80;;;5.63;;
73474;SDS011;61711;52.266;10.542;2023-02-28T06:41:16;8.38;;;5.38;;
73474;SDS011;61711;52.266;10.542;2023-02-28T06:43:42;13.63;;;6.47;;
73474;SDS011;61711;52.266;10.542;2023-02-28T06:46:10;11.32;;;6.30;;
73474;SDS011;61711;52.266;10.542;2023-02-28T06:48:36;8.65;;;5.20;;
73474;SDS011;61711;52.266;10.542;2023-02-28T06:51:03;8.48;;;4.75;;
73474;SDS011;61711;52.266;10.542;2023-02-28T06:53:29;10.65;;;4.95;;
73474;SDS011;61711;52.266;10.542;2023-02-28T06:55:55;9.65;;;5.30;;
73474;SDS011;61711;52.266;10.542;2023-02-28T06:58:21;10.55;;;5.07;;
73474;SDS011;61711;52.266;10.542;2023-02-28T07:00:50;10.00;;;4.85;;
73474;SDS011;61711;52.266;10.542;2023-02-28T07:03:16;8.50;;;4.47;;
73474;SDS011;61711;52.266;10.542;2023-02-28T07:05:45;9.38;;;4.32;;
73474;SDS011;61711;52.266;10.542;2023-02-28T07:08:11;8.90;;;4.30;;
73474;SDS011;61711;52.266;10.542;2023-02-28T07:10:38;7.70;;;4.88;;
73474;SDS011;61711;52.266;10.542;2023-02-28T07:13:04;6.85;;;3.85;;
73474;SDS011;61711;52.266;10.542;2023-02-28T07:15:30;11.27;;;4.50;;
73474;SDS011;61711;52.266;10.542;2023-02-28T07:17:56;10.80;;;4.43;;
73474;SDS011;61711;52.266;10.542;2023-02-28T07:20:23;8.68;;;4.35;;
73474;SDS011;61711;52.266;10.542;2023-02-28T07:22:49;8.27;;;4.18;;
73474;SDS011;61711;52.266;10.542;2023-02-28T07:25:21;9.18;;;4.70;;
73474;SDS011;61711;52.266;10.542;2023-02-28T07:27:47;13.73;;;6.28;;
73474;SDS011;61711;52.266;10.542;2023-02-28T07:30:13;8.25;;;4.38;;
73474;SDS011;61711;52.266;10.542;2023-02-28T07:32:39;8.10;;;3.90;;
73474;SDS011;61711;52.266;10.542;2023-02-28T07:35:06;8.10;;;4.28;;
73474;SDS011;61711;52.266;10.542;2023-02-28T07:37:32;11.05;;;4.30;;
73474;SDS011;61711;52.266;10.542;2023-02-28T07:40:04;7.95;;;3.92;;
73474;SDS011;61711;52.266;10.542;2023-02-28T07:42:34;6.15;;;3.70;;
73474;SDS011;61711;52.266;10.542;2023-02-28T07:45:00;6.68;;;3.70;;
73474;SDS011;61711;52.266;10.542;2023-02-28T07:47:28;9.00;;;3.40;;
73474;SDS011;61711;52.266;10.542;2023-02-28T07:49:55;5.78;;;3.72;;
73474;SDS011;61711;52.266;10.542;2023-02-28T07:52:21;9.02;;;3.88;;
73474;SDS011;61711;52.266;10.542;2023-02-28T07:54:48;6.88;;;3.45;;
73474;SDS011;61711;52.266;10.542;2023-02-28T07:57:14;7.10;;;4.30;;
73474;SDS011;61711;52.266;10.542;2023-02-28T07:59:40;7.22;;;4.00;;
73474;SDS011;61711;52.266;10.542;2023-02-28T08:02:08;7.68;;;3.72;;
73474;SDS011;61711;52.266;10.542;2023-02-28T08:04:35;8.40;;;3.97;;
73474;SDS011;61711;52.266;10.542;2023-02-28T08:07:01;8.25;;;3.60;;
73474;SDS011;61711;52.266;10.542;2023-02-28T08:09:27;8.63;;;3.92;;
73474;SDS011;61711;52.266;10.542;2023-02-28T08:11:54;7.60;;;3.80;;
73474;SDS011;61711;52.266;10.542;2023-02-28T08:14:20;7.70;;;4.30;;
73474;SDS011;61711;52.266;10.542;2023-02-28T08:16:46;10.63;;;4.20;;
73474;SDS011;61711;52.266;10.542;2023-02-28T08:19:12;7.72;;;3.97;;
73474;SDS011;61711;52.266;10.542;2023-02-28T08:21:38;7.28;;;4.00;;
73474;SDS011;61711;52.266;10.542;2023-02-28T08:24:05;7.28;;;3.85;;
73474;SDS011;61711;52.266;10.542;2023-02-28T08:26:31;6.03;;;3.90;;
73474;SDS011;61711;52.266;10.542;2023-02-28T08:28:57;8.00;;;3.58;;
73474;SDS011;61711;52.266;10.542;2023-02-28T08:31:23;6.80;;;4.22;;
73474;SDS011;61711;52.266;10.542;2023-02-28T08:33:49;9.00;;;4.35;;
73474;SDS011;61711;52.266;10.542;2023-02-28T08:36:16;8.60;;;4.65;;
73474;SDS011;61711;52.266;10.542;2023-02-28T08:38:43;10.05;;;4.80;;
73474;SDS011;61711;52.266;10.542;2023-02-28T08:41:10;8.32;;;4.07;;
73474;SDS011;61711;52.266;10.542;2023-02-28T08:43:37;9.35;;;4.38;;
73474;SDS011;61711;52.266;10.542;2023-02-28T08:46:03;7.43;;;3.90;;
73474;SDS011;61711;52.266;10.542;2023-02-28T08:48:30;7.15;;;4.47;;
73474;SDS011;61711;52.266;10.542;2023-02-28T08:53:22;9.30;;;4.55;;
73474;SDS011;61711;52.266;10.542;2023-02-28T08:55:55;10.15;;;4.60;;
73474;SDS011;61711;52.266;10.542;2023-02-28T08:58:21;9.48;;;4.53;;
73474;SDS011;61711;52.266;10.542;2023-02-28T09:00:47;8.63;;;4.20;;
73474;SDS011;61711;52.266;10.542;2023-02-28T09:03:13;6.80;;;3.65;;
73474;SDS011;61711;52.266;10.542;2023-02-28T09:05:39;12.35;;;4.03;;
73474;SDS011;61711;52.266;10.542;2023-02-28T09:08:05;7.45;;;3.45;;
73474;SDS011;61711;52.266;10.542;2023-02-28T09:10:31;8.85;;;3.83;;
73474;SDS011;61711;52.266;10.542;2023-02-28T09:12:57;7.85;;;3.40;;
73474;SDS011;61711;52.266;10.542;2023-02-28T09:15:23;7.40;;;3.40;;
73474;SDS011;61711;52.266;10.542;2023-02-28T09:17:49;7.38;;;3.80;;
73474;SDS011;61711;52.266;10.542;2023-02-28T09:20:15;6.13;;;3.63;;
73474;SDS011;61711;52.266;10.542;2023-02-28T09:22:41;7.47;;;3.67;;
73474;SDS011;61711;52.266;10.542;2023-02-28T09:25:07;6.68;;;3.75;;
73474;SDS011;61711;52.266;10.542;2023-02-28T09:27:33;6.30;;;3.58;;
73474;SDS011;61711;52.266;10.542;2023-02-28T09:29:59;7.57;;;3.65;;
73474;SDS011;61711;52.266;10.542;2023-02-28T09:32:25;7.72;;;3.70;;
73474;SDS011;61711;52.266;10.542;2023-02-28T09:34:52;7.38;;;3.72;;
73474;SDS011;61711;52.266;10.542;2023-02-28T09:37:18;8.57;;;3.92;;
73474;SDS011;61711;52.266;10.542;2023-02-28T09:39:44;7.85;;;3.58;;
73474;SDS011;61711;52.266;10.542;2023-02-28T09:42:17;8.90;;;3.85;;
73474;SDS011;61711;52.266;10.542;2023-02-28T09:44:44;7.00;;;3.85;;
73474;SDS011;61711;52.266;10.542;2023-02-28T09:52:39;5.50;;;3.45;;
73474;SDS011;61711;52.266;10.542;2023-02-28T09:55:48;6.65;;;3.70;;
73474;SDS011;61711;52.266;10.542;2023-02-28T09:57:54;6.80;;;4.00;;
73474;SDS011;61711;52.266;10.542;2023-02-28T10:00:30;5.25;;;3.00;;
73474;SDS011;61711;52.266;10.542;2023-02-28T10:05:33;6.72;;;3.30;;
73474;SDS011;61711;52.266;10.542;2023-02-28T10:10:51;7.10;;;3.00;;
73474;SDS011;61711;52.266;10.542;2023-02-28T10:16:08;5.03;;;3.20;;
73474;SDS011;61711;52.266;10.542;2023-02-28T10:21:20;4.28;;;2.63;;
73474;SDS011;61711;52.266;10.542;2023-02-28T10:23:47;4.32;;;2.88;;
73474;SDS011;61711;52.266;10.542;2023-02-28T10:26:14;8.85;;;3.22;;
73474;SDS011;61711;52.266;10.542;2023-02-28T10:28:41;6.05;;;3.03;;
73474;SDS011;61711;52.266;10.542;2023-02-28T10:31:11;5.47;;;2.92;;
73474;SDS011;61711;52.266;10.542;2023-02-28T10:33:38;6.90;;;2.85;;
73474;SDS011;61711;52.266;10.542;2023-02-28T10:36:04;8.02;;;3.00;;
73474;SDS011;61711;52.266;10.542;2023-02-28T10:38:36;5.32;;;2.78;;
73474;SDS011;61711;52.266;10.542;2023-02-28T10:41:07;5.20;;;3.20;;
73474;SDS011;61711;52.266;10.542;2023-02-28T10:43:33;7.32;;;2.78;;
73474;SDS011;61711;52.266;10.542;2023-02-28T10:48:42;4.63;;;2.20;;
73474;SDS011;61711;52.266;10.542;2023-02-28T10:51:10;6.38;;;2.28;;
73474;SDS011;61711;52.266;10.542;2023-02-28T10:53:45;3.88;;;2.10;;
73474;SDS011;61711;52.266;10.542;2023-02-28T11:03:57;3.38;;;2.10;;
73474;SDS011;61711;52.266;10.542;2023-02-28T11:06:31;4.25;;;2.10;;
73474;SDS011;61711;52.266;10.542;2023-02-28T11:11:24;4.57;;;2.30;;
73474;SDS011;61711;52.266;10.542;2023-02-28T11:13:51;7.65;;;2.70;;
73474;SDS011;61711;52.266;10.542;2023-02-28T11:16:18;5.57;;;2.80;;
73474;SDS011;61711;52.266;10.542;2023-02-28T11:18:54;4.05;;;2.50;;
73474;SDS011;61711;52.266;10.542;2023-02-28T11:23:46;4.85;;;2.50;;
73474;SDS011;61711;52.266;10.542;2023-02-28T11:26:14;3.22;;;2.30;;
73474;SDS011;61711;52.266;10.542;2023-02-28T11:28:40;3.65;;;2.38;;
73474;SDS011;61711;52.266;10.542;2023-02-28T11:33:52;5.57;;;3.03;;
73474;SDS011;61711;52.266;10.542;2023-02-28T11:36:23;4.13;;;2.40;;
73474;SDS011;61711;52.266;10.542;2023-02-28T11:38:50;3.97;;;2.53;;
73474;SDS011;61711;52.266;10.542;2023-02-28T11:48:52;10.48;;;5.38;;
73474;SDS011;61711;52.266;10.542;2023-02-28T11:52:06;9.43;;;4.20;;
73474;SDS011;61711;52.266;10.542;2023-02-28T11:59:11;4.50;;;2.45;;
73474;SDS011;61711;52.266;10.542;2023-02-28T12:07:23;3.78;;;2.45;;
73474;SDS011;61711;52.266;10.542;2023-02-28T12:28:01;3.88;;;2.70;;
73474;SDS011;61711;52.266;10.542;2023-02-28T12:30:34;3.92;;;2.78;;
73474;SDS011;61711;52.266;10.542;2023-02-28T12:33:03;4.75;;;2.90;;
73474;SDS011;61711;52.266;10.542;2023-02-28T12:35:33;5.65;;;2.50;;
73474;SDS011;61711;52.266;10.542;2023-02-28T12:38:05;7.10;;;2.75;;
73474;SDS011;61711;52.266;10.542;2023-02-28T12:40:52;3.78;;;2.55;;
73474;SDS011;61711;52.266;10.542;2023-02-28T12:43:19;4.18;;;2.53;;
73474;SDS011;61711;52.266;10.542;2023-02-28T12:45:48;4.35;;;2.67;;
73474;SDS011;61711;52.266;10.542;2023-02-28T12:48:18;5.50;;;2.80;;
73474;SDS011;61711;52.266;10.542;2023-02-28T12:50:45;6.20;;;2.38;;
73474;SDS011;61711;52.266;10.542;2023-02-28T12:56:13;5.97;;;2.92;;
73474;SDS011;61711;52.266;10.542;2023-02-28T12:58:50;3.88;;;2.60;;
73474;SDS011;61711;52.266;10.542;2023-02-28T13:06:58;5.38;;;3.20;;
73474;SDS011;61711;52.266;10.542;2023-02-28T13:09:26;5.38;;;2.78;;
73474;SDS011;61711;52.266;10.542;2023-02-28T13:11:54;4.57;;;2.88;;
73474;SDS011;61711;52.266;10.542;2023-02-28T13:24:46;5.22;;;2.90;;
73474;SDS011;61711;52.266;10.542;2023-02-28T13:27:20;4.40;;;3.10;;
73474;SDS011;61711;52.266;10.542;2023-02-28T13:29:50;3.42;;;3.05;;
73474;SDS011;61711;52.266;10.542;2023-02-28T13:39:57;5.03;;;3.15;;
73474;SDS011;61711;52.266;10.542;2023-02-28T13:42:36;8.30;;;3.33;;
73474;SDS011;61711;52.266;10.542;2023-02-28T13:47:35;4.68;;;3.05;;
73474;SDS011;61711;52.266;10.542;2023-02-28T13:50:21;3.72;;;2.85;;
73474;SDS011;61711;52.266;10.542;2023-02-28T13:52:50;5.90;;;3.30;;
73474;SDS011;61711;52.266;10.542;2023-02-28T13:58:09;4.53;;;3.33;;
73474;SDS011;61711;52.266;10.542;2023-02-28T14:03:16;4.25;;;3.38;;
73474;SDS011;61711;52.266;10.542;2023-02-28T14:05:51;5.38;;;3.50;;
73474;SDS011;61711;52.266;10.542;2023-02-28T14:08:33;6.70;;;3.60;;
73474;SDS011;61711;52.266;10.542;2023-02-28T14:11:04;5.93;;;3.20;;
73474;SDS011;61711;52.266;10.542;2023-02-28T14:13:38;6.72;;;3.22;;
73474;SDS011;61711;52.266;10.542;2023-02-28T14:16:09;4.30;;;3.22;;
73474;SDS011;61711;52.266;10.542;2023-02-28T14:18:58;5.38;;;3.15;;
73474;SDS011;61711;52.266;10.542;2023-02-28T14:21:45;4.15;;;2.83;;
73474;SDS011;61711;52.266;10.542;2023-02-28T14:29:35;5.97;;;3.08;;
73474;SDS011;61711;52.266;10.542;2023-02-28T14:34:54;6.47;;;3.70;;
73474;SDS011;61711;52.266;10.542;2023-02-28T14:37:26;6.15;;;3.53;;
73474;SDS011;61711;52.266;10.542;2023-02-28T14:39:55;5.93;;;3.30;;
73474;SDS011;61711;52.266;10.542;2023-02-28T14:42:31;4.90;;;3.28;;
73474;SDS011;61711;52.266;10.542;2023-02-28T14:44:58;6.30;;;3.28;;
73474;SDS011;61711;52.266;10.542;2023-02-28T14:47:26;4.65;;;3.20;;
73474;SDS011;61711;52.266;10.542;2023-02-28T14:49:53;6.25;;;3.38;;
73474;SDS011;61711;52.266;10.542;2023-02-28T14:52:23;7.30;;;4.00;;
73474;SDS011;61711;52.266;10.542;2023-02-28T14:54:52;6.60;;;3.10;;
73474;SDS011;61711;52.266;10.542;2023-02-28T14:57:28;5.15;;;3.28;;
73474;SDS011;61711;52.266;10.542;2023-02-28T15:00:04;5.03;;;3.58;;
73474;SDS011;61711;52.266;10.542;2023-02-28T15:02:36;7.28;;;3.08;;
73474;SDS011;61711;52.266;10.542;2023-02-28T15:07:41;5.65;;;3.58;;
73474;SDS011;61711;52.266;10.542;2023-02-28T15:10:18;6.43;;;3.75;;
73474;SDS011;61711;52.266;10.542;2023-02-28T15:13:18;5.35;;;3.67;;
73474;SDS011;61711;52.266;10.542;2023-02-28T15:15:41;7.25;;;3.90;;
73474;SDS011;61711;52.266;10.542;2023-02-28T15:18:10;6.60;;;3.85;;
73474;SDS011;61711;52.266;10.542;2023-02-28T15:20:39;6.72;;;4.50;;
73474;SDS011;61711;52.266;10.542;2023-02-28T15:23:07;7.35;;;3.67;;
73474;SDS011;61711;52.266;10.542;2023-02-28T15:25:34;5.63;;;3.80;;
73474;SDS011;61711;52.266;10.542;2023-02-28T15:28:00;6.53;;;3.92;;
73474;SDS011;61711;52.266;10.542;2023-02-28T15:30:28;6.90;;;4.18;;
73474;SDS011;61711;52.266;10.542;2023-02-28T15:33:17;7.07;;;3.72;;
73474;SDS011;61711;52.266;10.542;2023-02-28T15:35:44;7.22;;;3.88;;
73474;SDS011;61711;52.266;10.542;2023-02-28T15:38:15;6.60;;;3.90;;
73474;SDS011;61711;52.266;10.542;2023-02-28T15:40:42;7.25;;;4.00;;
73474;SDS011;61711;52.266;10.542;2023-02-28T15:43:16;5.68;;;3.65;;
73474;SDS011;61711;52.266;10.542;2023-02-28T15:48:16;7.90;;;3.88;;
73474;SDS011;61711;52.266;10.542;2023-02-28T15:50:42;5.32;;;3.72;;
73474;SDS011;61711;52.266;10.542;2023-02-28T15:53:12;7.15;;;4.03;;
73474;SDS011;61711;52.266;10.542;2023-02-28T15:55:39;6.80;;;3.83;;
73474;SDS011;61711;52.266;10.542;2023-02-28T15:58:08;8.77;;;4.10;;
73474;SDS011;61711;52.266;10.542;2023-02-28T16:00:38;6.55;;;3.60;;
73474;SDS011;61711;52.266;10.542;2023-02-28T16:03:26;6.10;;;3.90;;
73474;SDS011;61711;52.266;10.542;2023-02-28T16:06:08;6.60;;;3.65;;
73474;SDS011;61711;52.266;10.542;2023-02-28T16:08:35;7.10;;;3.78;;
73474;SDS011;61711;52.266;10.542;2023-02-28T16:11:01;7.68;;;4.13;;
73474;SDS011;61711;52.266;10.542;2023-02-28T16:13:27;5.70;;;3.38;;
73474;SDS011;61711;52.266;10.542;2023-02-28T16:15:53;10.35;;;4.75;;
73474;SDS011;61711;52.266;10.542;2023-02-28T16:18:19;6.70;;;4.32;;
73474;SDS011;61711;52.266;10.542;2023-02-28T16:20:45;6.13;;;3.83;;
73474;SDS011;61711;52.266;10.542;2023-02-28T16:23:11;6.63;;;3.42;;
73474;SDS011;61711;52.266;10.542;2023-02-28T16:25:42;7.40;;;3.10;;
73474;SDS011;61711;52.266;10.542;2023-02-28T16:28:15;5.03;;;3.33;;
73474;SDS011;61711;52.266;10.542;2023-02-28T16:30:43;5.78;;;3.47;;
73474;SDS011;61711;52.266;10.542;2023-02-28T16:33:09;4.65;;;3.00;;
73474;SDS011;61711;52.266;10.542;2023-02-28T16:35:35;6.78;;;3.28;;
73474;SDS011;61711;52.266;10.542;2023-02-28T16:38:01;9.15;;;4.50;;
73474;SDS011;61711;52.266;10.542;2023-02-28T16:40:27;5.90;;;3.47;;
73474;SDS011;61711;52.266;10.542;2023-02-28T16:42:55;9.00;;;3.42;;
73474;SDS011;61711;52.266;10.542;2023-02-28T16:45:24;4.93;;;3.20;;
73474;SDS011;61711;52.266;10.542;2023-02-28T16:47:51;7.35;;;3.92;;
73474;SDS011;61711;52.266;10.542;2023-02-28T16:50:21;7.22;;;3.42;;
73474;SDS011;61711;52.266;10.542;2023-02-28T16:52:47;4.80;;;3.25;;
73474;SDS011;61711;52.266;10.542;2023-02-28T16:55:14;8.10;;;3.80;;
73474;SDS011;61711;52.266;10.542;2023-02-28T16:57:41;6.65;;;3.53;;
73474;SDS011;61711;52.266;10.542;2023-02-28T17:00:10;6.47;;;3.60;;
73474;SDS011;61711;52.266;10.542;2023-02-28T17:02:37;6.85;;;4.05;;
73474;SDS011;61711;52.266;10.542;2023-02-28T17:05:03;7.05;;;3.83;;
73474;SDS011;61711;52.266;10.542;2023-02-28T17:07:29;7.43;;;3.90;;
73474;SDS011;61711;52.266;10.542;2023-02-28T17:09:55;7.40;;;4.03;;
73474;SDS011;61711;52.266;10.542;2023-02-28T17:12:21;6.15;;;3.85;;
73474;SDS011;61711;52.266;10.542;2023-02-28T17:14:47;7.55;;;3.80;;
73474;SDS011;61711;52.266;10.542;2023-02-28T17:17:20;6.20;;;3.40;;